Terminal Aerodrome Forecast
Issued by NWS Mt. Holly, NJ

Home | Current Version | Previous Version | Text Only | Print | Product List | Glossary On
Versions: 1 2 3 4 5 6 7 8 9 10 11 12 13
000
FTUS41 KPHI 250524
TAFRDG
TAF
KRDG 250524Z 2506/2606 VRB02KT P6SM SKC
      TEMPO 2507/2511 6SM BR
     FM251400 06005KT P6SM SKC
     FM252200 11005KT P6SM SKC=

USA.gov is the U.S. government's official web portal to all federal, state and local government web resources and services.